Time;durP1;ratioP1;P1;durP2;ratioP2;P2;SDS_P1;SDS_P2;PMS_P1;PMS_P2;Temp;Humidity;BMP_temperature;BMP_pressure;BME280_temperature;BME280_humidity;BME280_pressure;Samples;Min_cycle;Max_cycle;Signal;HPM_P1;HPM_P2
2023/11/01 00:01:47;;;;;;;0.52;0.52;;;8.10;99.90;;;;;;4970418;28;20156;-77
2023/11/01 00:04:12;;;;;;;0.40;0.40;;;8.00;99.90;;;;;;5017630;28;20047;-79
2023/11/01 00:06:38;;;;;;;0.50;0.50;;;8.10;99.90;;;;;;4980972;28;20047;-77
2023/11/01 00:09:04;;;;;;;0.60;0.60;;;8.10;99.90;;;;;;4975929;28;20068;-78
2023/11/01 00:11:29;;;;;;;0.43;0.43;;;8.10;99.90;;;;;;5033352;28;20050;-76
2023/11/01 00:13:55;;;;;;;0.55;0.55;;;8.20;99.90;;;;;;5000053;28;20547;-77
2023/11/01 00:16:21;;;;;;;0.40;0.40;;;8.20;99.90;;;;;;4975773;28;20654;-76
2023/11/01 00:18:46;;;;;;;1.90;0.88;;;8.30;99.90;;;;;;4987090;28;20114;-75
2023/11/01 00:21:12;;;;;;;0.73;0.73;;;8.30;99.90;;;;;;4973132;28;20034;-76
2023/11/01 00:23:38;;;;;;;0.60;0.60;;;8.30;99.90;;;;;;4969660;28;20057;-77
2023/11/01 00:26:06;;;;;;;0.75;0.75;;;8.30;99.90;;;;;;4984038;28;20432;-77
2023/11/01 00:28:32;;;;;;;0.40;0.40;;;8.30;99.90;;;;;;4988692;28;20167;-76
2023/11/01 00:30:58;;;;;;;1.15;1.15;;;8.40;99.90;;;;;;4981147;28;20050;-76
2023/11/01 00:33:24;;;;;;;0.45;0.45;;;8.40;99.90;;;;;;4980095;28;20430;-76
2023/11/01 00:35:49;;;;;;;0.68;0.68;;;8.40;99.90;;;;;;4970693;28;20051;-77
2023/11/01 00:38:20;;;;;;;0.40;0.40;;;8.50;99.90;;;;;;5011709;28;20083;-76
2023/11/01 00:40:46;;;;;;;0.47;0.47;;;8.50;99.90;;;;;;4989863;28;20044;-76
2023/11/01 00:43:12;;;;;;;0.50;0.50;;;8.50;99.90;;;;;;5002588;28;20538;-76
2023/11/01 00:45:38;;;;;;;0.50;0.50;;;8.50;99.90;;;;;;4997765;28;20404;-76
2023/11/01 00:48:04;;;;;;;0.60;0.60;;;8.50;99.90;;;;;;5002066;28;20058;-75
2023/11/01 00:50:30;;;;;;;0.40;0.40;;;8.50;99.90;;;;;;4974783;28;20054;-76
2023/11/01 00:52:56;;;;;;;0.40;0.40;;;8.60;99.90;;;;;;5005606;28;20046;-75
2023/11/01 00:55:21;;;;;;;1.23;1.23;;;8.60;99.90;;;;;;5022638;28;20506;-75
2023/11/01 00:57:48;;;;;;;1.70;1.65;;;8.60;99.90;;;;;;4983646;28;20050;-76
2023/11/01 01:00:15;;;;;;;0.80;0.80;;;8.60;99.90;;;;;;4995297;28;20055;-76
2023/11/01 01:02:42;;;;;;;0.50;0.50;;;8.70;99.90;;;;;;4984874;28;20039;-77
2023/11/01 01:05:07;;;;;;;1.08;0.98;;;8.70;99.90;;;;;;4976017;28;20032;-76
2023/11/01 01:07:33;;;;;;;0.43;0.43;;;8.70;99.90;;;;;;4976110;28;20046;-76
2023/11/01 01:09:59;;;;;;;0.40;0.40;;;8.70;99.90;;;;;;5015715;28;20043;-77
2023/11/01 01:12:24;;;;;;;0.60;0.60;;;8.80;99.90;;;;;;5001842;28;20139;-77
2023/11/01 01:14:50;;;;;;;1.85;1.45;;;8.70;99.90;;;;;;4973964;28;20047;-77
2023/11/01 01:17:16;;;;;;;0.57;0.57;;;8.80;99.90;;;;;;5001965;28;20040;-76
2023/11/01 01:19:41;;;;;;;2.10;2.00;;;8.80;99.90;;;;;;4984389;28;20051;-77
2023/11/01 01:22:07;;;;;;;0.30;0.30;;;8.80;99.90;;;;;;5008151;28;20565;-77
2023/11/01 01:24:33;;;;;;;1.00;1.00;;;8.90;99.90;;;;;;5023831;28;20396;-78
2023/11/01 01:26:58;;;;;;;0.47;0.47;;;8.90;99.90;;;;;;5004414;28;20047;-76
2023/11/01 01:29:24;;;;;;;0.47;0.43;;;8.90;99.90;;;;;;4975701;28;20147;-77
2023/11/01 01:31:50;;;;;;;0.93;0.93;;;9.00;99.90;;;;;;4982127;28;20075;-78
2023/11/01 01:34:16;;;;;;;0.55;0.55;;;9.00;99.90;;;;;;5016003;28;20051;-77
2023/11/01 01:36:41;;;;;;;0.30;0.30;;;9.00;99.90;;;;;;5006938;28;20040;-76
2023/11/01 01:39:07;;;;;;;1.10;0.95;;;9.00;99.90;;;;;;4970964;28;20050;-76
2023/11/01 01:41:33;;;;;;;0.85;0.85;;;9.00;99.90;;;;;;4986595;28;20041;-77
2023/11/01 01:43:58;;;;;;;1.55;0.70;;;9.00;99.90;;;;;;4997275;28;20035;-77
2023/11/01 01:46:28;;;;;;;1.05;0.60;;;9.00;99.90;;;;;;4981948;28;20042;-76
2023/11/01 01:48:54;;;;;;;0.50;0.50;;;9.00;99.90;;;;;;4977184;28;20039;-76
2023/11/01 01:51:20;;;;;;;0.40;0.40;;;9.00;99.90;;;;;;4985545;28;20141;-76
2023/11/01 01:53:48;;;;;;;0.32;0.32;;;9.00;99.90;;;;;;4986794;28;20059;-77
2023/11/01 01:56:15;;;;;;;0.40;0.40;;;9.00;99.90;;;;;;5040480;28;20052;-79
2023/11/01 01:58:41;;;;;;;0.40;0.40;;;9.00;99.90;;;;;;4993534;28;20050;-78
2023/11/01 02:01:07;;;;;;;0.38;0.38;;;9.00;99.90;;;;;;5002879;28;20039;-78
2023/11/01 02:03:35;;;;;;;0.50;0.50;;;9.10;99.90;;;;;;4972672;28;20042;-77
2023/11/01 02:06:02;;;;;;;0.30;0.30;;;9.00;99.90;;;;;;5017594;28;20094;-77
2023/11/01 02:08:29;;;;;;;0.40;0.40;;;9.10;99.90;;;;;;4979658;28;20034;-78
2023/11/01 02:10:55;;;;;;;0.40;0.40;;;9.10;99.90;;;;;;5019551;28;20043;-78
2023/11/01 02:13:21;;;;;;;0.40;0.40;;;9.00;99.90;;;;;;5000447;28;20088;-79
2023/11/01 02:15:49;;;;;;;0.50;0.50;;;9.00;99.90;;;;;;4998055;28;20045;-78
2023/11/01 02:18:15;;;;;;;0.45;0.45;;;9.00;99.90;;;;;;4967578;28;20095;-80
2023/11/01 02:20:43;;;;;;;1.45;0.85;;;9.00;99.90;;;;;;5001581;28;20115;-77
2023/11/01 02:23:15;;;;;;;0.30;0.30;;;9.00;99.90;;;;;;4972549;28;20039;-79
2023/11/01 02:25:42;;;;;;;0.50;0.50;;;8.90;99.90;;;;;;4960350;28;20035;-78
2023/11/01 02:28:11;;;;;;;0.55;0.55;;;8.90;99.90;;;;;;5011766;28;20047;-80
2023/11/01 02:30:39;;;;;;;0.60;0.60;;;8.90;99.90;;;;;;4999897;28;20760;-80
2023/11/01 02:33:06;;;;;;;0.30;0.30;;;8.80;99.90;;;;;;4995772;28;20050;-77
2023/11/01 02:35:32;;;;;;;0.50;0.50;;;8.90;99.90;;;;;;4979011;28;20211;-79
2023/11/01 02:37:58;;;;;;;;;;;8.90;99.90;;;;;;5030529;28;20387;-76
2023/11/01 02:40:24;;;;;;;0.50;0.50;;;8.80;99.90;;;;;;5035534;28;19932;-78
2023/11/01 02:42:51;;;;;;;0.38;0.38;;;8.70;99.90;;;;;;5017863;28;20127;-77
2023/11/01 02:45:17;;;;;;;0.95;0.95;;;8.70;99.90;;;;;;4979972;28;20062;-76
2023/11/01 02:47:43;;;;;;;;;;;8.80;99.90;;;;;;4984458;28;20038;-78
2023/11/01 02:50:11;;;;;;;0.40;0.40;;;8.70;99.90;;;;;;4993842;28;19924;-76
2023/11/01 02:52:38;;;;;;;0.40;0.40;;;8.70;99.90;;;;;;4992291;28;20053;-77
2023/11/01 02:55:07;;;;;;;0.50;0.50;;;8.60;99.90;;;;;;5006274;28;20055;-76
2023/11/01 02:57:33;;;;;;;1.05;1.05;;;8.60;99.90;;;;;;5004838;28;20090;-76
2023/11/01 03:00:00;;;;;;;0.50;0.50;;;8.50;99.90;;;;;;5039087;28;20058;-77
2023/11/01 03:02:26;;;;;;;0.85;0.85;;;8.40;99.90;;;;;;4989296;28;20045;-77
2023/11/01 03:04:52;;;;;;;0.75;0.75;;;8.40;99.90;;;;;;4980382;28;20064;-78
2023/11/01 03:07:18;;;;;;;0.40;0.40;;;8.40;99.90;;;;;;4966772;28;20043;-77
2023/11/01 03:09:44;;;;;;;0.47;0.47;;;8.30;99.90;;;;;;4986811;28;20049;-77
2023/11/01 03:12:10;;;;;;;0.50;0.50;;;8.30;99.90;;;;;;4988730;28;20036;-78
2023/11/01 03:14:38;;;;;;;0.60;0.60;;;8.30;99.90;;;;;;5038243;28;20048;-79
2023/11/01 03:17:05;;;;;;;1.70;1.60;;;8.30;99.90;;;;;;5017134;28;20043;-77
2023/11/01 03:19:31;;;;;;;0.35;0.35;;;8.30;99.90;;;;;;4983688;28;20095;-78
2023/11/01 03:21:56;;;;;;;0.50;0.50;;;8.30;99.90;;;;;;4987356;28;20039;-76
2023/11/01 03:24:22;;;;;;;0.40;0.40;;;8.30;99.90;;;;;;4987697;28;20040;-77
2023/11/01 03:26:48;;;;;;;0.40;0.40;;;8.30;99.90;;;;;;4980382;28;20079;-77
2023/11/01 03:29:13;;;;;;;1.45;1.20;;;8.30;99.90;;;;;;4979459;28;20050;-77
2023/11/01 03:31:39;;;;;;;0.88;0.88;;;8.40;99.90;;;;;;4996768;28;20097;-75
2023/11/01 03:34:05;;;;;;;0.50;0.50;;;8.30;99.90;;;;;;5004114;28;20052;-76
2023/11/01 03:36:30;;;;;;;0.43;0.43;;;8.30;99.90;;;;;;5014046;28;20068;-76
2023/11/01 03:38:56;;;;;;;0.50;0.50;;;8.30;99.90;;;;;;4988742;28;20393;-77
2023/11/01 03:41:22;;;;;;;2.28;0.75;;;8.30;99.90;;;;;;4969972;28;20388;-78
2023/11/01 03:43:48;;;;;;;0.40;0.40;;;8.50;99.90;;;;;;4973258;28;20085;-76
2023/11/01 03:46:13;;;;;;;0.68;0.68;;;8.50;99.90;;;;;;4999609;28;20043;-77
2023/11/01 03:48:39;;;;;;;0.75;0.75;;;8.50;99.90;;;;;;5024763;28;20561;-77
2023/11/01 03:51:05;;;;;;;1.30;1.20;;;8.60;99.90;;;;;;5021262;28;20090;-77
2023/11/01 03:53:31;;;;;;;0.47;0.47;;;8.70;99.90;;;;;;5009275;28;20061;-76
2023/11/01 03:55:57;;;;;;;0.60;0.60;;;8.80;99.90;;;;;;4980578;28;20408;-77
2023/11/01 03:58:23;;;;;;;1.38;0.60;;;8.80;99.90;;;;;;4969176;28;20057;-77
2023/11/01 04:00:50;;;;;;;0.40;0.40;;;8.80;99.90;;;;;;4997996;28;20044;-77
2023/11/01 04:03:15;;;;;;;0.55;0.55;;;8.90;99.90;;;;;;5020986;28;20101;-76
2023/11/01 04:05:41;;;;;;;0.75;0.75;;;8.90;99.90;;;;;;5012406;28;20045;-77
2023/11/01 04:08:07;;;;;;;0.40;0.40;;;9.00;99.90;;;;;;5040600;28;20054;-76
2023/11/01 04:10:33;;;;;;;1.98;0.98;;;9.00;99.90;;;;;;4990910;28;20098;-77
2023/11/01 04:12:59;;;;;;;0.55;0.55;;;9.00;99.90;;;;;;5017439;28;20047;-78
2023/11/01 04:15:24;;;;;;;0.40;0.40;;;9.10;99.90;;;;;;5006536;28;20402;-78
2023/11/01 04:17:50;;;;;;;1.63;0.90;;;9.10;99.90;;;;;;4980705;28;20054;-78
2023/11/01 04:20:16;;;;;;;0.52;0.52;;;9.20;99.90;;;;;;4996815;28;20115;-77
2023/11/01 04:22:42;;;;;;;1.02;1.02;;;9.20;99.90;;;;;;5007015;28;20093;-79
2023/11/01 04:25:11;;;;;;;0.40;0.40;;;9.30;99.90;;;;;;4998005;28;20433;-80
2023/11/01 04:27:39;;;;;;;0.60;0.60;;;9.30;99.90;;;;;;4976732;28;20043;-77
2023/11/01 04:30:09;;;;;;;0.40;0.40;;;9.40;99.90;;;;;;4994940;28;20145;-78
2023/11/01 04:32:36;;;;;;;0.52;0.52;;;9.40;99.90;;;;;;4975479;28;20102;-79
2023/11/01 04:35:03;;;;;;;0.70;0.70;;;9.50;99.90;;;;;;5007400;28;20053;-79
2023/11/01 04:37:30;;;;;;;1.02;1.02;;;9.50;99.90;;;;;;4984316;28;20050;-78
2023/11/01 04:39:56;;;;;;;0.40;0.40;;;9.60;99.90;;;;;;4989123;28;20401;-79
2023/11/01 04:42:22;;;;;;;0.88;0.80;;;9.60;99.90;;;;;;4987922;28;20042;-78
2023/11/01 04:44:48;;;;;;;0.85;0.85;;;9.70;99.90;;;;;;4969543;28;20104;-79
2023/11/01 04:47:14;;;;;;;1.63;1.52;;;10.00;99.90;;;;;;4984547;28;20055;-80
2023/11/01 04:49:40;;;;;;;0.40;0.40;;;10.00;99.90;;;;;;5037002;28;20050;-78
2023/11/01 04:52:06;;;;;;;0.70;0.70;;;9.90;99.90;;;;;;5022689;28;20458;-78
2023/11/01 04:54:33;;;;;;;;;;;10.00;99.90;;;;;;5027430;28;20047;-78
2023/11/01 04:57:00;;;;;;;0.50;0.50;;;10.00;99.90;;;;;;4969586;28;20174;-79
2023/11/01 04:59:30;;;;;;;0.82;0.82;;;9.90;99.90;;;;;;4998729;28;20652;-79
2023/11/01 05:01:56;;;;;;;1.35;0.98;;;9.90;99.90;;;;;;4977466;28;20107;-79
2023/11/01 05:04:23;;;;;;;0.57;0.57;;;9.90;99.90;;;;;;4989677;28;20126;-80
2023/11/01 05:06:50;;;;;;;1.20;0.70;;;10.30;99.90;;;;;;4973168;28;20478;-78
2023/11/01 05:09:15;;;;;;;1.08;0.98;;;10.00;99.90;;;;;;4978914;28;20050;-79
2023/11/01 05:11:41;;;;;;;1.27;1.17;;;10.00;99.90;;;;;;5017886;28;20125;-78
2023/11/01 05:14:08;;;;;;;0.80;0.80;;;10.00;99.90;;;;;;5013262;28;20043;-79
2023/11/01 05:16:34;;;;;;;0.65;0.65;;;10.10;99.90;;;;;;5024498;28;20055;-77
2023/11/01 05:18:59;;;;;;;2.58;2.38;;;10.10;99.90;;;;;;5004628;28;20036;-78
2023/11/01 05:21:25;;;;;;;0.50;0.50;;;10.10;99.90;;;;;;4974722;28;20153;-79
2023/11/01 05:23:50;;;;;;;4.43;0.82;;;10.10;99.90;;;;;;4978230;28;20146;-79
2023/11/01 05:26:16;;;;;;;0.50;0.50;;;10.10;99.90;;;;;;4983001;28;20036;-81
2023/11/01 05:28:43;;;;;;;2.08;1.10;;;10.10;99.90;;;;;;4998096;28;20091;-79
2023/11/01 05:31:09;;;;;;;1.10;1.10;;;10.10;99.90;;;;;;5003049;28;20047;-78
2023/11/01 05:33:34;;;;;;;;;;;10.10;99.90;;;;;;4992993;28;20456;-78
2023/11/01 05:36:06;;;;;;;0.43;0.40;;;10.10;99.90;;;;;;4985551;28;20036;-78
2023/11/01 05:38:35;;;;;;;0.82;0.77;;;10.20;99.90;;;;;;4996507;28;20050;-79
2023/11/01 05:41:02;;;;;;;0.50;0.50;;;10.20;99.90;;;;;;4970405;28;20432;-78
2023/11/01 05:43:28;;;;;;;0.77;0.75;;;10.20;99.90;;;;;;4993958;28;20047;-78
2023/11/01 05:45:54;;;;;;;0.70;0.70;;;10.30;99.90;;;;;;4995580;28;20134;-79
2023/11/01 05:48:19;;;;;;;0.77;0.63;;;10.10;99.90;;;;;;5012334;28;20077;-82
2023/11/01 05:50:45;;;;;;;0.40;0.40;;;10.10;99.90;;;;;;5002148;28;20065;-80
2023/11/01 05:53:11;;;;;;;0.38;0.38;;;10.10;99.90;;;;;;4978069;28;20042;-79
2023/11/01 05:55:37;;;;;;;0.88;0.88;;;10.10;99.90;;;;;;4970953;28;20193;-79
2023/11/01 05:58:07;;;;;;;0.80;0.80;;;10.10;99.90;;;;;;4973294;28;20074;-81
2023/11/01 06:00:34;;;;;;;0.68;0.68;;;10.10;99.90;;;;;;4979218;28;20129;-81
2023/11/01 06:03:00;;;;;;;0.80;0.80;;;10.20;99.90;;;;;;4974879;28;20047;-81
2023/11/01 06:05:26;;;;;;;0.40;0.40;;;10.10;99.90;;;;;;4975155;28;20095;-81
2023/11/01 06:07:52;;;;;;;0.43;0.40;;;10.10;99.90;;;;;;4993522;28;20035;-81
2023/11/01 06:10:18;;;;;;;1.58;1.45;;;10.10;99.90;;;;;;4957567;28;20043;-81
2023/11/01 06:12:44;;;;;;;;;;;10.10;99.90;;;;;;5010392;28;20044;-81
2023/11/01 06:15:10;;;;;;;0.60;0.60;;;10.10;99.90;;;;;;4995281;28;20290;-81
2023/11/01 06:17:37;;;;;;;0.40;0.40;;;10.10;99.90;;;;;;4975243;28;20051;-81
2023/11/01 06:20:05;;;;;;;0.50;0.50;;;10.10;99.90;;;;;;5003491;28;20474;-81
2023/11/01 06:22:37;;;;;;;0.60;0.60;;;10.10;99.90;;;;;;4972575;28;20381;-80
2023/11/01 06:25:03;;;;;;;2.65;0.93;;;10.20;99.90;;;;;;5041894;28;20063;-82
2023/11/01 06:27:30;;;;;;;0.60;0.60;;;10.10;99.90;;;;;;4982596;28;20042;-81
2023/11/01 06:29:56;;;;;;;0.60;0.60;;;10.10;99.90;;;;;;5041933;28;20156;-82
2023/11/01 06:32:22;;;;;;;0.30;0.30;;;10.10;99.90;;;;;;4995202;28;20047;-81
2023/11/01 06:34:47;;;;;;;0.40;0.40;;;10.20;99.90;;;;;;4978002;28;20082;-82
2023/11/01 06:37:16;;;;;;;0.30;0.30;;;10.20;99.90;;;;;;4991267;28;20582;-82
2023/11/01 06:39:42;;;;;;;0.65;0.65;;;10.20;99.90;;;;;;4991253;28;20300;-82
2023/11/01 06:42:07;;;;;;;0.60;0.60;;;10.20;99.90;;;;;;5000539;28;20182;-82
2023/11/01 06:44:33;;;;;;;1.00;0.60;;;10.20;99.90;;;;;;4980564;28;20395;-81
2023/11/01 06:47:02;;;;;;;0.90;0.90;;;10.30;99.90;;;;;;4986169;28;20045;-81
2023/11/01 06:49:34;;;;;;;0.50;0.50;;;10.30;99.90;;;;;;4977781;28;20049;-82
2023/11/01 06:52:00;;;;;;;0.75;0.75;;;10.30;99.90;;;;;;4984851;28;20484;-82
2023/11/01 06:54:28;;;;;;;;;;;10.30;99.90;;;;;;4986302;28;20047;-82
2023/11/01 06:57:00;;;;;;;0.40;0.40;;;10.30;99.90;;;;;;4969725;28;20446;-81
2023/11/01 06:59:26;;;;;;;0.40;0.40;;;10.40;99.90;;;;;;5016643;28;20034;-82
2023/11/01 07:01:51;;;;;;;1.02;0.50;;;10.40;99.90;;;;;;5053681;28;20038;-82
2023/11/01 07:04:17;;;;;;;0.57;0.55;;;10.40;99.90;;;;;;4988042;28;20046;-81
2023/11/01 07:06:44;;;;;;;;;;;10.40;99.90;;;;;;4982994;28;20556;-80
2023/11/01 07:09:10;;;;;;;0.68;0.68;;;10.40;99.90;;;;;;4985394;28;20365;-81
2023/11/01 07:11:36;;;;;;;0.50;0.50;;;10.50;99.90;;;;;;4978521;28;20051;-80
2023/11/01 07:14:04;;;;;;;0.40;0.40;;;10.50;99.90;;;;;;5019845;28;20047;-80
2023/11/01 07:16:31;;;;;;;0.40;0.40;;;10.50;99.90;;;;;;4975920;28;20050;-81
2023/11/01 07:18:58;;;;;;;1.92;1.27;;;10.50;99.90;;;;;;5000919;28;20425;-78
2023/11/01 07:21:26;;;;;;;0.70;0.70;;;10.60;99.90;;;;;;4967360;28;20035;-81
2023/11/01 07:23:52;;;;;;;0.40;0.40;;;10.60;99.90;;;;;;4987469;28;20381;-80
2023/11/01 07:26:21;;;;;;;0.30;0.30;;;10.60;99.90;;;;;;4966191;28;20404;-80
2023/11/01 07:28:46;;;;;;;0.50;0.50;;;10.60;99.90;;;;;;4930464;28;20050;-79
2023/11/01 07:31:13;;;;;;;0.57;0.57;;;10.60;99.90;;;;;;4975370;28;20081;-79
2023/11/01 07:33:39;;;;;;;1.08;0.45;;;10.70;99.90;;;;;;5000615;28;20046;-78
2023/11/01 07:36:05;;;;;;;2.30;0.40;;;10.70;99.90;;;;;;5025584;28;20397;-81
2023/11/01 07:38:37;;;;;;;0.55;0.55;;;10.70;99.90;;;;;;4969665;28;20051;-82
2023/11/01 07:41:02;;;;;;;;;;;10.70;99.90;;;;;;4967446;28;20034;-82
2023/11/01 07:43:31;;;;;;;0.85;0.85;;;10.80;99.90;;;;;;5046699;28;20009;-82
2023/11/01 07:45:58;;;;;;;0.32;0.32;;;10.80;99.90;;;;;;5039323;28;20496;-83
2023/11/01 07:48:29;;;;;;;0.80;0.77;;;10.80;99.90;;;;;;4992580;28;20468;-81
2023/11/01 07:50:55;;;;;;;0.30;0.30;;;10.90;99.90;;;;;;5005982;28;20077;-81
2023/11/01 07:53:22;;;;;;;0.52;0.52;;;10.90;99.90;;;;;;5043288;28;20117;-82
2023/11/01 07:55:48;;;;;;;0.30;0.30;;;10.90;99.90;;;;;;5036296;28;20200;-82
2023/11/01 07:58:14;;;;;;;0.47;0.47;;;11.00;99.90;;;;;;5024981;28;20596;-83
2023/11/01 08:00:39;;;;;;;0.75;0.75;;;11.10;99.90;;;;;;4986791;28;20485;-82
2023/11/01 08:03:06;;;;;;;;;;;11.00;99.90;;;;;;5001289;28;20477;-81
2023/11/01 08:05:32;;;;;;;0.20;0.20;;;;;;;;;;4987665;28;19971;-82
2023/11/01 08:07:57;;;;;;;0.50;0.50;;;11.00;99.90;;;;;;5036358;28;20468;-82
2023/11/01 08:10:23;;;;;;;1.38;1.27;;;11.10;99.90;;;;;;4982736;28;20151;-81
2023/11/01 08:12:49;;;;;;;0.90;0.68;;;11.10;99.90;;;;;;4993220;28;20046;-81
2023/11/01 08:15:14;;;;;;;0.25;0.25;;;11.10;99.90;;;;;;5012346;28;20054;-82
2023/11/01 08:17:46;;;;;;;0.43;0.43;;;11.20;99.90;;;;;;4971092;28;20112;-81
2023/11/01 08:20:13;;;;;;;0.40;0.40;;;11.20;99.90;;;;;;5025365;28;20043;-83
2023/11/01 08:22:38;;;;;;;0.73;0.73;;;11.20;99.90;;;;;;5018681;28;20038;-81
2023/11/01 08:25:06;;;;;;;0.25;0.25;;;11.30;99.90;;;;;;4964434;28;20545;-81
2023/11/01 08:27:32;;;;;;;0.77;0.77;;;11.20;99.90;;;;;;4986655;28;20043;-82
2023/11/01 08:29:59;;;;;;;0.57;0.57;;;11.30;99.90;;;;;;4969249;28;20050;-82
2023/11/01 08:32:30;;;;;;;0.30;0.30;;;11.30;99.90;;;;;;4987751;28;20043;-80
2023/11/01 08:34:57;;;;;;;0.40;0.40;;;11.30;99.90;;;;;;4974825;28;20043;-82
2023/11/01 08:37:25;;;;;;;0.20;0.20;;;11.30;99.90;;;;;;4992057;28;20086;-81
2023/11/01 08:39:51;;;;;;;0.60;0.60;;;11.30;99.90;;;;;;5004184;28;20127;-82
2023/11/01 08:42:17;;;;;;;;;;;11.30;99.90;;;;;;4988952;28;20042;-82
2023/11/01 08:44:43;;;;;;;0.65;0.65;;;11.30;99.90;;;;;;4981728;28;19925;-82
2023/11/01 08:47:29;;;;;;;;;;;11.30;99.90;;;;;;4995800;28;20049;-81
2023/11/01 08:49:54;;;;;;;0.20;0.20;;;11.20;99.90;;;;;;5039621;28;19916;-80
2023/11/01 08:52:24;;;;;;;0.88;0.60;;;11.20;99.90;;;;;;5049877;28;20130;-81
2023/11/01 08:54:50;;;;;;;0.30;0.30;;;11.20;99.90;;;;;;5020068;28;20196;-79
2023/11/01 08:57:16;;;;;;;0.50;0.50;;;11.00;99.90;;;;;;5038623;28;20063;-79
2023/11/01 08:59:42;;;;;;;0.40;0.40;;;11.20;99.90;;;;;;5048858;28;20107;-80
2023/11/01 09:02:07;;;;;;;0.30;0.30;;;11.20;99.90;;;;;;5037657;28;20046;-79
2023/11/01 09:04:33;;;;;;;0.60;0.60;;;11.20;99.90;;;;;;5001330;28;20040;-81
2023/11/01 09:06:59;;;;;;;0.30;0.30;;;11.20;99.90;;;;;;5048349;28;20033;-80
2023/11/01 09:09:25;;;;;;;1.65;1.58;;;11.20;99.90;;;;;;5021834;28;20042;-79
2023/11/01 09:11:51;;;;;;;0.20;0.20;;;11.20;99.90;;;;;;5022445;28;20041;-80
2023/11/01 09:14:17;;;;;;;0.20;0.20;;;11.20;99.90;;;;;;4998547;28;20049;-80
2023/11/01 09:16:42;;;;;;;0.75;0.75;;;11.20;99.90;;;;;;5021692;28;20043;-79
2023/11/01 09:19:08;;;;;;;0.40;0.40;;;11.30;99.90;;;;;;5015645;28;20376;-79
2023/11/01 09:21:36;;;;;;;0.30;0.30;;;11.30;99.90;;;;;;5045584;28;20041;-80
2023/11/01 09:24:03;;;;;;;0.40;0.40;;;11.30;99.90;;;;;;4992488;28;20052;-80
2023/11/01 09:26:29;;;;;;;0.25;0.25;;;11.30;99.90;;;;;;5039320;28;20042;-79
2023/11/01 09:28:54;;;;;;;0.40;0.40;;;11.30;99.90;;;;;;5024289;28;20050;-79
2023/11/01 09:31:20;;;;;;;0.30;0.30;;;11.30;99.90;;;;;;5043381;28;20042;-78
2023/11/01 09:33:48;;;;;;;0.47;0.47;;;11.30;99.90;;;;;;4997120;28;20059;-78
2023/11/01 09:36:15;;;;;;;0.52;0.52;;;11.30;99.90;;;;;;5019199;28;20129;-79
2023/11/01 09:38:41;;;;;;;1.23;1.20;;;11.40;99.90;;;;;;5018761;28;20098;-78
2023/11/01 09:41:07;;;;;;;0.40;0.40;;;11.40;99.90;;;;;;5011679;28;20458;-78
2023/11/01 09:43:35;;;;;;;2.17;1.10;;;11.40;99.90;;;;;;5017689;28;20540;-78
2023/11/01 09:46:03;;;;;;;0.52;0.52;;;11.50;99.90;;;;;;5001437;28;20439;-77
2023/11/01 09:48:31;;;;;;;0.63;0.63;;;11.50;99.90;;;;;;4997326;28;20037;-76
2023/11/01 09:50:58;;;;;;;0.30;0.30;;;11.50;99.90;;;;;;5012192;28;20122;-77
2023/11/01 09:53:24;;;;;;;0.30;0.30;;;11.50;99.90;;;;;;5030912;28;20050;-77
2023/11/01 09:55:50;;;;;;;0.20;0.20;;;11.60;99.90;;;;;;5034826;28;20054;-77
2023/11/01 09:58:18;;;;;;;;;;;11.60;99.90;;;;;;5031967;28;20059;-77
2023/11/01 10:00:45;;;;;;;0.30;0.30;;;11.70;99.90;;;;;;5016702;28;19937;-77
2023/11/01 10:03:12;;;;;;;0.30;0.30;;;11.80;99.90;;;;;;5012827;28;20043;-78
2023/11/01 10:05:38;;;;;;;0.40;0.40;;;11.90;99.90;;;;;;5024680;28;20546;-76
2023/11/01 10:08:03;;;;;;;0.35;0.35;;;12.00;99.90;;;;;;5043187;28;20037;-76
2023/11/01 10:10:30;;;;;;;1.52;0.90;;;12.10;99.90;;;;;;4988595;28;20127;-76
2023/11/01 10:12:56;;;;;;;0.25;0.25;;;12.30;99.90;;;;;;4984121;28;20040;-77
2023/11/01 10:15:22;;;;;;;0.40;0.40;;;12.40;99.90;;;;;;4980015;28;20043;-78
2023/11/01 10:17:51;;;;;;;0.88;0.60;;;12.50;99.90;;;;;;5013220;28;20096;-79
2023/11/01 10:20:29;;;;;;;0.30;0.30;;;12.60;99.90;;;;;;4997331;28;20065;-78
2023/11/01 10:22:56;;;;;;;0.20;0.20;;;12.80;99.90;;;;;;5010909;28;20039;-77
2023/11/01 10:25:22;;;;;;;0.43;0.43;;;12.90;99.90;;;;;;5015059;28;20135;-77
2023/11/01 10:27:48;;;;;;;0.45;0.45;;;13.00;99.90;;;;;;5000747;28;20152;-76
2023/11/01 10:30:14;;;;;;;;;;;13.10;99.90;;;;;;5016172;28;20059;-77
2023/11/01 10:32:52;;;;;;;0.60;0.60;;;13.20;99.90;;;;;;5004064;28;20346;-78
2023/11/01 10:35:18;;;;;;;0.50;0.50;;;13.20;99.90;;;;;;5000809;28;20121;-77
2023/11/01 10:37:43;;;;;;;0.40;0.40;;;13.20;99.90;;;;;;4987024;28;20477;-79
2023/11/01 10:40:12;;;;;;;0.50;0.50;;;13.30;99.90;;;;;;4976283;28;20051;-77
2023/11/01 10:42:40;;;;;;;0.40;0.40;;;13.30;99.90;;;;;;4974689;28;20046;-77
2023/11/01 10:45:08;;;;;;;0.73;0.73;;;13.30;99.90;;;;;;4995036;28;20121;-79
2023/11/01 10:47:34;;;;;;;0.32;0.32;;;13.30;99.90;;;;;;4996526;28;20176;-77
2023/11/01 10:50:01;;;;;;;0.40;0.40;;;13.40;99.90;;;;;;5006787;28;20047;-78
2023/11/01 10:52:27;;;;;;;0.50;0.50;;;13.40;99.90;;;;;;4989891;28;20484;-77
2023/11/01 10:54:55;;;;;;;0.60;0.60;;;13.30;99.90;;;;;;4982641;28;20089;-79
2023/11/01 10:57:22;;;;;;;0.70;0.70;;;13.30;99.90;;;;;;5009580;28;20065;-78
2023/11/01 11:00:13;;;;;;;0.93;0.93;;;13.30;99.90;;;;;;5014444;28;20095;-76
2023/11/01 11:02:51;;;;;;;2.65;0.98;;;13.30;99.90;;;;;;4974446;28;20410;-80
2023/11/01 11:05:22;;;;;;;1.15;1.05;;;13.30;99.90;;;;;;4986375;28;20496;-80
2023/11/01 11:07:50;;;;;;;0.40;0.40;;;13.30;99.90;;;;;;5012912;28;20052;-78
2023/11/01 11:10:32;;;;;;;0.30;0.30;;;13.30;99.90;;;;;;4981633;28;20062;-80
2023/11/01 11:13:16;;;;;;;0.25;0.25;;;13.30;99.90;;;;;;5021298;28;20412;-77
2023/11/01 11:18:16;;;;;;;0.20;0.20;;;13.50;99.90;;;;;;5014326;28;20100;-78
2023/11/01 11:20:42;;;;;;;1.58;1.58;;;13.60;99.90;;;;;;4978793;28;20504;-79
2023/11/01 11:23:16;;;;;;;1.10;1.00;;;13.70;99.90;;;;;;5003728;28;20076;-76
2023/11/01 11:26:02;;;;;;;0.32;0.32;;;13.80;99.90;;;;;;5001258;28;20035;-82
2023/11/01 11:28:38;;;;;;;0.50;0.50;;;13.80;99.90;;;;;;5008819;28;20047;-84
2023/11/01 11:31:11;;;;;;;0.77;0.77;;;13.90;99.90;;;;;;5006834;28;20049;-81
2023/11/01 11:33:46;;;;;;;0.30;0.30;;;14.00;99.90;;;;;;4985950;28;20042;-83
2023/11/01 11:36:20;;;;;;;0.40;0.40;;;14.00;99.90;;;;;;4997361;28;20050;-80
2023/11/01 11:39:01;;;;;;;0.45;0.45;;;14.10;99.90;;;;;;4996076;28;20067;-82
2023/11/01 11:41:39;;;;;;;0.30;0.30;;;14.10;99.90;;;;;;4989411;28;20498;-83
2023/11/01 11:44:26;;;;;;;0.30;0.30;;;14.00;99.90;;;;;;4995396;28;20049;-81
2023/11/01 11:46:59;;;;;;;0.50;0.50;;;14.00;99.90;;;;;;5023183;28;20124;-80
2023/11/01 11:49:28;;;;;;;0.45;0.45;;;13.90;99.90;;;;;;4995289;28;20047;-80
2023/11/01 11:52:00;;;;;;;1.75;1.65;;;13.90;99.90;;;;;;5028744;28;20074;-81
2023/11/01 11:54:29;;;;;;;0.52;0.52;;;14.00;99.90;;;;;;5019168;28;20072;-82
2023/11/01 11:56:57;;;;;;;1.35;1.30;;;14.10;99.90;;;;;;5039749;28;20067;-83
2023/11/01 11:59:25;;;;;;;0.98;0.98;;;14.20;99.90;;;;;;5036576;28;20058;-80
2023/11/01 12:01:52;;;;;;;0.38;0.38;;;14.30;99.90;;;;;;4980308;28;20051;-77
2023/11/01 12:04:18;;;;;;;0.30;0.30;;;14.20;99.90;;;;;;4991117;28;20043;-82
2023/11/01 12:06:45;;;;;;;;;;;14.30;99.90;;;;;;5050716;28;20440;-82
2023/11/01 12:09:12;;;;;;;;;;;14.30;99.90;;;;;;5000751;28;19961;-81
2023/11/01 12:11:38;;;;;;;0.40;0.40;;;14.30;99.90;;;;;;4989324;28;19918;-81
2023/11/01 12:14:05;;;;;;;0.38;0.32;;;14.20;99.90;;;;;;5041268;28;20045;-84
2023/11/01 12:16:31;;;;;;;1.48;1.38;;;14.20;99.90;;;;;;4985431;28;20051;-82
2023/11/01 12:19:14;;;;;;;;;;;14.20;99.90;;;;;;4996410;28;20070;-82
2023/11/01 12:21:40;;;;;;;0.20;0.20;;;14.30;99.90;;;;;;5032871;28;19953;-83
2023/11/01 12:24:08;;;;;;;0.55;0.55;;;14.30;99.90;;;;;;5030309;28;20163;-81
2023/11/01 12:26:34;;;;;;;0.30;0.30;;;14.50;99.90;;;;;;5034493;28;20476;-80
2023/11/01 12:29:10;;;;;;;0.55;0.55;;;14.50;99.90;;;;;;5011174;28;20047;-83
2023/11/01 12:31:36;;;;;;;1.23;0.93;;;14.70;99.90;;;;;;5007217;28;20074;-82
2023/11/01 12:34:11;;;;;;;0.82;0.82;;;14.80;99.90;;;;;;5024506;28;20321;-79
2023/11/01 12:36:38;;;;;;;0.20;0.20;;;14.90;99.90;;;;;;5025152;28;20057;-84
2023/11/01 12:39:08;;;;;;;0.50;0.50;;;14.90;99.90;;;;;;5038027;28;20056;-82
2023/11/01 12:41:33;;;;;;;0.60;0.50;;;14.80;99.90;;;;;;4992256;28;20046;-81
2023/11/01 12:43:59;;;;;;;0.30;0.30;;;14.70;99.90;;;;;;5032783;28;20040;-84
2023/11/01 12:46:26;;;;;;;0.52;0.52;;;14.50;99.90;;;;;;4983872;28;20041;-80
2023/11/01 12:48:52;;;;;;;1.67;1.48;;;14.40;99.90;;;;;;4987878;28;20114;-82
2023/11/01 12:51:17;;;;;;;1.10;1.02;;;14.30;99.90;;;;;;4999315;28;20133;-84
2023/11/01 12:53:43;;;;;;;1.45;0.60;;;14.30;99.90;;;;;;5031181;28;20040;-85
2023/11/01 12:56:09;;;;;;;0.77;0.73;;;14.30;99.90;;;;;;5021160;28;20052;-85
2023/11/01 12:58:41;;;;;;;0.63;0.63;;;14.30;99.90;;;;;;5011225;28;20040;-82